createdAt,value
2022-10-03T00:00:11.842Z,12.10
2022-10-03T00:03:23.580Z,12.10
2022-10-03T00:06:16.360Z,12.00
2022-10-03T00:09:29.659Z,11.90
2022-10-03T00:12:32.919Z,12.00
2022-10-03T00:15:26.216Z,11.80
2022-10-03T00:18:25.705Z,11.80
2022-10-03T00:21:30.416Z,11.90
2022-10-03T00:24:27.905Z,11.90
2022-10-03T00:27:19.840Z,12.00
2022-10-03T00:30:18.343Z,11.80
2022-10-03T00:33:15.735Z,11.90
2022-10-03T00:36:13.568Z,11.90
2022-10-03T00:39:28.459Z,11.90
2022-10-03T00:42:52.482Z,11.90
2022-10-03T00:46:24.333Z,11.90
2022-10-03T00:49:40.411Z,11.90
2022-10-03T00:52:53.293Z,11.90
2022-10-03T00:55:52.148Z,11.80
2022-10-03T00:58:51.189Z,11.80
2022-10-03T01:01:44.008Z,11.90
2022-10-03T01:04:51.093Z,11.70
2022-10-03T01:07:59.184Z,11.80
2022-10-03T01:10:54.435Z,11.70
2022-10-03T01:13:52.985Z,11.70
2022-10-03T01:16:54.221Z,11.80
2022-10-03T01:20:11.433Z,11.80
2022-10-03T01:23:31.186Z,11.70
2022-10-03T01:26:34.401Z,11.60
2022-10-03T01:29:49.294Z,11.60
2022-10-03T01:32:44.902Z,11.70
2022-10-03T01:35:46.579Z,11.70
2022-10-03T01:38:39.132Z,11.70
2022-10-03T01:41:32.620Z,11.60
2022-10-03T01:44:25.553Z,11.60
2022-10-03T01:47:21.369Z,11.60
2022-10-03T01:50:18.052Z,11.70
2022-10-03T01:53:09.993Z,11.60
2022-10-03T01:56:02.201Z,11.70
2022-10-03T01:58:59.433Z,11.50
2022-10-03T02:01:52.247Z,11.50
2022-10-03T02:04:49.505Z,11.50
2022-10-03T02:07:45.256Z,11.50
2022-10-03T02:10:41.982Z,11.50
2022-10-03T02:13:43.160Z,11.50
2022-10-03T02:16:37.541Z,11.50
2022-10-03T02:19:29.724Z,11.60
2022-10-03T02:22:28.507Z,11.50
2022-10-03T02:25:26.508Z,11.50
2022-10-03T02:28:45.256Z,11.40
2022-10-03T02:31:57.021Z,11.40
2022-10-03T02:35:10.457Z,11.50
2022-10-03T02:38:10.922Z,11.50
2022-10-03T02:41:18.820Z,11.30
2022-10-03T02:44:35.385Z,11.40
2022-10-03T02:48:08.647Z,11.40
2022-10-03T02:51:34.311Z,11.40
2022-10-03T02:55:04.463Z,11.30
2022-10-03T02:58:26.320Z,11.30
2022-10-03T03:01:40.837Z,11.40
2022-10-03T03:05:19.395Z,11.40
2022-10-03T03:08:41.552Z,11.40
2022-10-03T03:11:47.445Z,11.30
2022-10-03T03:15:02.969Z,11.30
2022-10-03T03:17:58.060Z,11.40
2022-10-03T03:21:10.792Z,11.40
2022-10-03T03:24:17.645Z,11.20
2022-10-03T03:27:23.679Z,11.30
2022-10-03T03:30:14.095Z,11.30
2022-10-03T03:33:11.824Z,11.30
2022-10-03T03:36:05.368Z,11.20
2022-10-03T03:39:01.108Z,11.30
2022-10-03T03:41:58.540Z,11.30
2022-10-03T03:45:01.930Z,11.30
2022-10-03T03:48:12.505Z,11.30
2022-10-03T03:51:23.040Z,11.40
2022-10-03T03:54:46.996Z,11.10
2022-10-03T03:57:48.284Z,11.10
2022-10-03T04:00:51.076Z,11.00
2022-10-03T04:03:51.216Z,11.10
2022-10-03T04:06:48.855Z,11.00
2022-10-03T04:10:15.064Z,11.10
2022-10-03T04:13:32.097Z,11.10
2022-10-03T04:17:05.739Z,11.10
2022-10-03T04:20:09.841Z,11.10
2022-10-03T04:23:25.303Z,11.10
2022-10-03T04:26:31.855Z,11.10
2022-10-03T04:29:31.355Z,11.10
2022-10-03T04:32:48.734Z,11.00
2022-10-03T04:36:14.279Z,11.10
2022-10-03T04:39:10.979Z,11.10
2022-10-03T04:42:05.719Z,11.20
2022-10-03T04:45:08.635Z,11.30
2022-10-03T04:48:07.212Z,11.30
2022-10-03T04:51:05.488Z,11.20
2022-10-03T04:54:00.614Z,11.20
2022-10-03T04:56:53.850Z,11.30
2022-10-03T04:59:49.677Z,11.20
2022-10-03T05:02:46.582Z,11.20
2022-10-03T05:05:49.495Z,11.20
2022-10-03T05:08:42.660Z,11.10
2022-10-03T05:11:42.290Z,11.00
2022-10-03T05:14:48.472Z,11.10
2022-10-03T05:17:46.567Z,11.20
2022-10-03T05:20:49.438Z,11.30
2022-10-03T05:23:48.647Z,11.30
2022-10-03T05:26:46.277Z,11.40
2022-10-03T05:29:39.923Z,11.40
2022-10-03T05:32:35.018Z,11.40
2022-10-03T05:35:31.383Z,11.30
2022-10-03T05:38:47.417Z,11.10
2022-10-03T05:41:36.514Z,11.30
2022-10-03T05:44:39.199Z,11.20
2022-10-03T05:47:47.940Z,11.20
2022-10-03T05:51:13.502Z,11.20
2022-10-03T05:54:43.631Z,11.30
2022-10-03T05:58:16.346Z,11.20
2022-10-03T06:01:27.550Z,11.20
2022-10-03T06:04:51.020Z,11.30
2022-10-03T06:07:55.913Z,11.30
2022-10-03T06:10:52.931Z,11.30
2022-10-03T06:13:56.349Z,11.30
2022-10-03T06:16:57.017Z,11.30
2022-10-03T06:19:51.052Z,11.30
2022-10-03T06:23:12.982Z,11.30
2022-10-03T06:26:28.851Z,11.40
2022-10-03T06:29:45.018Z,11.40
2022-10-03T06:33:20.025Z,11.40
2022-10-03T06:36:30.024Z,11.50
2022-10-03T06:39:51.895Z,11.50
2022-10-03T06:42:56.220Z,11.70
2022-10-03T06:46:09.227Z,11.70
2022-10-03T06:49:34.296Z,11.80
2022-10-03T06:52:56.500Z,11.70
2022-10-03T06:56:31.881Z,11.80
2022-10-03T06:59:57.012Z,11.90
2022-10-03T07:03:15.831Z,12.00
2022-10-03T07:06:24.476Z,11.80
2022-10-03T07:09:46.029Z,12.00
2022-10-03T07:13:05.104Z,12.00
2022-10-03T07:16:25.976Z,12.00
2022-10-03T07:19:43.364Z,12.10
2022-10-03T07:23:06.405Z,12.10
2022-10-03T07:26:39.625Z,12.30
2022-10-03T07:29:57.803Z,12.30
2022-10-03T07:33:21.948Z,12.40
2022-10-03T07:36:52.832Z,12.50
2022-10-03T07:40:18.539Z,12.60
2022-10-03T07:43:43.939Z,12.70
2022-10-03T07:46:59.907Z,12.90
2022-10-03T07:50:28.366Z,12.80
2022-10-03T07:53:43.446Z,12.80
2022-10-03T07:57:09.784Z,13.00
2022-10-03T08:00:16.934Z,13.10
2022-10-03T08:03:52.207Z,13.20
2022-10-03T08:06:44.116Z,13.40
2022-10-03T08:09:48.649Z,13.40
2022-10-03T08:12:52.917Z,13.40
2022-10-03T08:15:56.989Z,13.50
2022-10-03T08:19:14.428Z,13.70
2022-10-03T08:22:09.689Z,13.70
2022-10-03T08:25:14.693Z,13.80
2022-10-03T08:28:35.241Z,13.90
2022-10-03T08:31:43.876Z,14.00
2022-10-03T08:35:03.987Z,14.00
2022-10-03T08:38:28.094Z,14.10
2022-10-03T08:41:49.187Z,14.10
2022-10-03T08:45:19.154Z,14.30
2022-10-03T08:48:32.620Z,14.40
2022-10-03T08:51:59.855Z,14.50
2022-10-03T08:55:22.835Z,14.50
2022-10-03T08:58:38.421Z,14.70
2022-10-03T09:01:35.745Z,14.80
2022-10-03T09:05:06.597Z,14.90
2022-10-03T09:08:31.793Z,15.00
2022-10-03T09:12:09.644Z,15.00
2022-10-03T09:15:15.024Z,15.10
2022-10-03T09:18:24.279Z,15.10
2022-10-03T09:21:37.434Z,15.20
2022-10-03T09:25:03.951Z,15.20
2022-10-03T09:28:28.440Z,15.30
2022-10-03T09:31:29.387Z,15.60
2022-10-03T09:34:57.196Z,15.50
2022-10-03T09:38:19.939Z,15.70
2022-10-03T09:41:31.519Z,15.80
2022-10-03T09:44:54.803Z,16.00
2022-10-03T09:48:13.330Z,16.10
2022-10-03T09:51:20.249Z,16.00
2022-10-03T09:54:43.882Z,16.10
2022-10-03T09:58:09.180Z,16.00
2022-10-03T10:01:21.643Z,16.00
2022-10-03T10:04:55.263Z,16.00
2022-10-03T10:08:09.713Z,16.20
2022-10-03T10:11:08.321Z,16.50
2022-10-03T10:14:30.236Z,16.40
2022-10-03T10:17:56.669Z,16.10
2022-10-03T10:21:41.909Z,16.10
2022-10-03T10:24:58.872Z,16.40
2022-10-03T10:28:11.603Z,16.70
2022-10-03T10:31:26.155Z,16.70
2022-10-03T10:34:53.529Z,17.20
2022-10-03T10:38:02.839Z,17.00
2022-10-03T10:45:03.281Z,17.00
2022-10-03T10:48:29.560Z,17.10
2022-10-03T10:51:51.657Z,17.10
2022-10-03T10:55:14.935Z,17.40
2022-10-03T10:58:46.420Z,17.60
2022-10-03T11:02:12.787Z,17.40
2022-10-03T11:05:34.475Z,17.40
2022-10-03T11:08:58.380Z,17.30
2022-10-03T11:12:24.661Z,17.10
2022-10-03T11:16:03.877Z,17.00
2022-10-03T11:19:30.365Z,17.00
2022-10-03T11:23:07.865Z,16.90
2022-10-03T11:26:44.973Z,16.80
2022-10-03T11:30:08.673Z,17.20
2022-10-03T11:33:48.908Z,17.60
2022-10-03T11:37:10.703Z,18.00
2022-10-03T11:40:11.476Z,17.90
2022-10-03T11:43:24.781Z,17.60
2022-10-03T11:46:24.085Z,17.20
2022-10-03T11:49:24.723Z,17.20
2022-10-03T11:52:27.846Z,17.10
2022-10-03T11:55:26.525Z,17.10
2022-10-03T11:58:32.442Z,17.00
2022-10-03T12:01:30.964Z,17.00
2022-10-03T12:04:28.139Z,16.90
2022-10-03T12:07:42.997Z,17.10
2022-10-03T12:10:39.264Z,17.50
2022-10-03T12:13:36.201Z,17.60
2022-10-03T12:16:28.812Z,17.50
2022-10-03T12:19:25.068Z,17.40
2022-10-03T12:22:23.396Z,17.40
2022-10-03T12:25:20.416Z,17.30
2022-10-03T12:28:18.506Z,17.20
2022-10-03T12:31:18.941Z,17.20
2022-10-03T12:34:24.191Z,17.40
2022-10-03T12:37:35.259Z,17.30
2022-10-03T12:40:27.940Z,17.30
2022-10-03T12:43:31.172Z,17.20
2022-10-03T12:46:31.499Z,17.10
2022-10-03T12:49:21.686Z,17.30
2022-10-03T12:52:17.524Z,17.60
2022-10-03T12:55:24.380Z,17.70
2022-10-03T12:58:22.590Z,18.00
2022-10-03T13:01:20.596Z,17.90
2022-10-03T13:04:18.175Z,18.00
2022-10-03T13:07:21.967Z,17.70
2022-10-03T13:10:23.284Z,17.70
2022-10-03T13:13:26.452Z,17.50
2022-10-03T13:16:25.674Z,17.50
2022-10-03T13:19:17.369Z,17.40
2022-10-03T13:22:12.604Z,17.60
2022-10-03T13:25:05.387Z,17.90
2022-10-03T13:28:02.963Z,17.90
2022-10-03T13:30:56.054Z,17.80
2022-10-03T13:33:45.551Z,17.60
2022-10-03T13:36:41.068Z,17.80
2022-10-03T13:39:38.930Z,17.60
2022-10-03T13:42:37.117Z,17.60
2022-10-03T13:45:27.316Z,17.70
2022-10-03T13:48:16.322Z,17.40
2022-10-03T13:51:07.523Z,17.50
2022-10-03T13:54:01.413Z,17.60
2022-10-03T13:56:57.917Z,17.60
2022-10-03T13:59:57.177Z,17.30
2022-10-03T14:03:11.240Z,17.40
2022-10-03T14:06:17.008Z,17.40
2022-10-03T14:09:25.467Z,17.60
2022-10-03T14:12:38.300Z,17.40
2022-10-03T14:15:45.203Z,17.30
2022-10-03T14:18:44.821Z,17.40
2022-10-03T14:22:10.320Z,17.40
2022-10-03T14:25:09.412Z,17.20
2022-10-03T14:28:02.150Z,17.30
2022-10-03T14:31:07.200Z,17.30
2022-10-03T14:34:01.896Z,17.40
2022-10-03T14:36:54.173Z,17.60
2022-10-03T14:39:46.537Z,17.80
2022-10-03T14:42:58.573Z,17.90
2022-10-03T14:45:49.528Z,17.90
2022-10-03T14:48:39.880Z,18.00
2022-10-03T14:51:31.577Z,18.00
2022-10-03T14:54:21.520Z,18.10
2022-10-03T14:57:24.918Z,18.20
2022-10-03T15:00:25.714Z,18.10
2022-10-03T15:03:28.516Z,18.20
2022-10-03T15:06:33.853Z,18.40
2022-10-03T15:09:24.125Z,18.30
2022-10-03T15:12:17.783Z,18.40
2022-10-03T15:15:08.412Z,18.10
2022-10-03T15:18:00.492Z,18.20
2022-10-03T15:20:49.207Z,18.20
2022-10-03T15:23:42.375Z,18.00
2022-10-03T15:26:33.779Z,17.80
2022-10-03T15:29:21.525Z,17.80
2022-10-03T15:32:20.260Z,17.80
2022-10-03T15:35:09.648Z,17.80
2022-10-03T15:38:11.201Z,17.40
2022-10-03T15:41:12.698Z,17.30
2022-10-03T15:44:03.957Z,17.30
2022-10-03T15:46:54.893Z,17.20
2022-10-03T15:49:50.189Z,17.10
2022-10-03T15:52:42.710Z,17.20
2022-10-03T15:55:34.620Z,17.00
2022-10-03T15:58:30.099Z,17.10
2022-10-03T16:01:21.991Z,16.90
2022-10-03T16:04:18.596Z,16.90
2022-10-03T16:07:12.457Z,16.80
2022-10-03T16:10:20.962Z,16.80
2022-10-03T16:13:23.599Z,16.80
2022-10-03T16:16:15.600Z,16.50
2022-10-03T16:19:26.040Z,16.60
2022-10-03T16:22:18.680Z,16.50
2022-10-03T16:25:16.283Z,16.40
2022-10-03T16:28:06.323Z,16.50
2022-10-03T16:30:59.027Z,16.40
2022-10-03T16:33:57.266Z,16.30
2022-10-03T16:36:47.068Z,16.30
2022-10-03T16:39:36.114Z,16.30
2022-10-03T16:42:26.772Z,16.30
2022-10-03T16:45:25.355Z,16.20
2022-10-03T16:48:32.929Z,16.10
2022-10-03T16:51:22.012Z,16.00
2022-10-03T16:54:13.328Z,16.00
2022-10-03T16:57:02.040Z,15.80
2022-10-03T16:59:52.441Z,15.80
2022-10-03T17:02:39.965Z,15.70
2022-10-03T17:05:27.107Z,15.70
2022-10-03T17:08:40.270Z,15.50
2022-10-03T17:11:26.312Z,15.50
2022-10-03T17:14:17.959Z,15.50
2022-10-03T17:17:09.576Z,15.40
2022-10-03T17:20:04.413Z,15.30
2022-10-03T17:22:57.237Z,15.20
2022-10-03T17:25:52.231Z,15.10
2022-10-03T17:28:48.439Z,15.00
2022-10-03T17:31:40.861Z,14.90
2022-10-03T17:34:33.294Z,14.90
2022-10-03T17:37:42.299Z,14.80
2022-10-03T17:40:53.551Z,14.90
2022-10-03T17:43:44.894Z,14.80
2022-10-03T17:46:43.389Z,14.70
2022-10-03T17:49:46.923Z,14.70
2022-10-03T17:52:36.253Z,14.60
2022-10-03T17:55:27.913Z,14.50
2022-10-03T17:58:17.751Z,14.50
2022-10-03T18:01:11.886Z,14.40
2022-10-03T18:04:00.181Z,14.30
2022-10-03T18:06:56.040Z,14.20
2022-10-03T18:09:47.580Z,14.20
2022-10-03T18:12:39.983Z,14.10
2022-10-03T18:15:55.192Z,14.10
2022-10-03T18:19:10.420Z,14.10
2022-10-03T18:22:06.036Z,14.00
2022-10-03T18:24:56.080Z,13.90
2022-10-03T18:28:07.744Z,13.90
2022-10-03T18:31:00.331Z,13.80
2022-10-03T18:33:56.294Z,13.80
2022-10-03T18:36:46.929Z,13.70
2022-10-03T18:39:39.337Z,13.70
2022-10-03T18:42:28.251Z,13.70
2022-10-03T18:45:20.507Z,13.70
2022-10-03T18:48:12.396Z,13.60
2022-10-03T18:51:08.144Z,13.50
2022-10-03T18:54:00.637Z,13.50
2022-10-03T18:57:03.576Z,13.50
2022-10-03T18:59:56.829Z,13.50
2022-10-03T19:02:49.454Z,13.40
2022-10-03T19:05:44.005Z,13.40
2022-10-03T19:08:38.417Z,13.40
2022-10-03T19:11:30.681Z,13.30
2022-10-03T19:14:27.331Z,13.30
2022-10-03T19:17:25.464Z,13.30
2022-10-03T19:20:24.713Z,13.20
2022-10-03T19:23:14.697Z,13.20
2022-10-03T19:26:06.529Z,13.20
2022-10-03T19:28:56.153Z,13.10
2022-10-03T19:31:53.339Z,13.20
2022-10-03T19:34:42.377Z,13.10
2022-10-03T19:37:45.346Z,13.10
2022-10-03T19:40:52.896Z,13.00
2022-10-03T19:43:43.029Z,13.00
2022-10-03T19:47:01.179Z,12.90
2022-10-03T19:49:54.602Z,12.90
2022-10-03T19:52:41.960Z,12.90
2022-10-03T19:55:32.487Z,12.80
2022-10-03T19:58:24.396Z,12.80
2022-10-03T20:01:11.363Z,12.70
2022-10-03T20:04:01.473Z,12.70
2022-10-03T20:06:50.440Z,12.70
2022-10-03T20:09:37.843Z,12.70
2022-10-03T20:12:29.103Z,12.70
2022-10-03T20:15:21.669Z,12.70
2022-10-03T20:18:09.656Z,12.70
2022-10-03T20:20:59.921Z,12.60
2022-10-03T20:23:47.258Z,12.60
2022-10-03T20:26:37.927Z,12.60
2022-10-03T20:29:28.652Z,12.50
2022-10-03T20:32:17.518Z,12.50
2022-10-03T20:35:04.548Z,12.50
2022-10-03T20:37:56.264Z,12.50
2022-10-03T20:40:46.979Z,12.50
2022-10-03T20:43:41.603Z,12.50
2022-10-03T20:46:37.598Z,12.50
2022-10-03T20:49:33.006Z,12.50
2022-10-03T20:52:20.872Z,12.50
2022-10-03T20:55:19.425Z,12.40
2022-10-03T20:58:17.102Z,12.30
2022-10-03T21:01:10.241Z,12.30
2022-10-03T21:04:11.911Z,12.30
2022-10-03T21:07:04.156Z,12.20
2022-10-03T21:10:00.142Z,12.20
2022-10-03T21:12:50.935Z,12.20
2022-10-03T21:15:46.345Z,12.20
2022-10-03T21:18:36.269Z,12.20
2022-10-03T21:21:27.848Z,12.20
2022-10-03T21:24:20.598Z,12.20
2022-10-03T21:27:12.539Z,12.20
2022-10-03T21:30:05.782Z,12.10
2022-10-03T21:33:01.807Z,12.10
2022-10-03T21:35:50.488Z,12.10
2022-10-03T21:38:43.121Z,12.20
2022-10-03T21:41:37.910Z,12.10
2022-10-03T21:44:42.444Z,12.10
2022-10-03T21:47:44.940Z,12.10
2022-10-03T21:50:36.836Z,12.10
2022-10-03T21:53:35.448Z,12.00
2022-10-03T21:56:38.091Z,12.10
2022-10-03T21:59:55.456Z,12.00
2022-10-03T22:03:02.121Z,12.00
2022-10-03T22:05:55.427Z,12.00
2022-10-03T22:08:45.696Z,12.00
2022-10-03T22:11:43.294Z,12.00
2022-10-03T22:14:40.140Z,11.90
2022-10-03T22:17:35.312Z,11.90
2022-10-03T22:20:25.225Z,11.90
2022-10-03T22:23:24.042Z,11.90
2022-10-03T22:26:19.266Z,11.90
2022-10-03T22:29:13.182Z,12.00
2022-10-03T22:32:05.370Z,11.90
2022-10-03T22:34:59.902Z,11.90
2022-10-03T22:37:48.068Z,11.80
2022-10-03T22:40:34.912Z,11.80
2022-10-03T22:43:23.108Z,11.80
2022-10-03T22:46:12.809Z,11.80
2022-10-03T22:49:06.145Z,11.80
2022-10-03T22:51:55.744Z,11.80
2022-10-03T22:54:47.240Z,11.80
2022-10-03T22:57:36.019Z,11.80
2022-10-03T23:00:25.075Z,11.80
2022-10-03T23:03:15.236Z,11.80
2022-10-03T23:06:31.649Z,11.80
2022-10-03T23:09:25.445Z,11.80
2022-10-03T23:12:14.503Z,11.80
2022-10-03T23:15:04.663Z,11.80
2022-10-03T23:18:14.732Z,11.80
2022-10-03T23:21:07.696Z,11.80
2022-10-03T23:24:06.380Z,11.90
2022-10-03T23:27:37.847Z,11.80
2022-10-03T23:30:54.249Z,11.80
2022-10-03T23:33:53.129Z,11.80
2022-10-03T23:37:00.634Z,11.80
2022-10-03T23:40:25.980Z,11.80
2022-10-03T23:43:31.344Z,11.80
2022-10-03T23:46:21.647Z,11.70
2022-10-03T23:49:08.019Z,11.80
2022-10-03T23:51:54.739Z,11.80
2022-10-03T23:54:43.133Z,11.80
2022-10-03T23:57:34.808Z,11.80
